Time;durP1;ratioP1;P1;durP2;ratioP2;P2;SDS_P1;SDS_P2;PMS_P1;PMS_P2;Temp;Humidity;BMP_temperature;BMP_pressure;BME280_temperature;BME280_humidity;BME280_pressure;Samples;Min_cycle;Max_cycle;Signal;HPM_P1;HPM_P2
2020/12/27 00:02:12;;;;;;;0.20;0.10;;;;;;;2.88;94.68;100056.97;4956079;28;20451;-50
2020/12/27 00:04:39;;;;;;;0.20;0.20;;;;;;;2.81;94.69;100048.19;4955824;28;21048;-50
2020/12/27 00:07:07;;;;;;;0.20;0.10;;;;;;;2.89;94.15;100030.69;4955807;28;20486;-49
2020/12/27 00:09:38;;;;;;;0.20;0.10;;;;;;;2.82;93.80;100023.69;4955849;29;20451;-49
2020/12/27 00:12:06;;;;;;;0.20;0.10;;;;;;;2.97;93.46;100025.41;4955974;28;20486;-52
2020/12/27 00:14:32;;;;;;;0.20;0.10;;;;;;;2.87;94.03;100018.44;4955853;28;20534;-49
2020/12/27 00:17:03;;;;;;;0.20;0.10;;;;;;;2.83;93.82;100016.69;4955872;28;20499;-49
2020/12/27 00:19:29;;;;;;;0.20;0.20;;;;;;;2.92;94.27;100017.56;4955850;29;20454;-50
2020/12/27 00:21:56;;;;;;;0.20;0.10;;;;;;;2.92;94.44;100008.81;4955598;28;20455;-50
2020/12/27 00:24:22;;;;;;;0.20;0.10;;;;;;;2.77;95.51;100014.09;4955243;28;21056;-52
2020/12/27 00:26:49;;;;;;;0.20;0.10;;;;;;;2.77;94.95;100001.84;4955515;28;20920;-49
2020/12/27 00:29:15;;;;;;;0.20;0.10;;;;;;;2.71;94.84;99987.84;4955572;28;20456;-50
2020/12/27 00:31:42;;;;;;;0.30;0.20;;;;;;;2.62;95.09;99981.75;4955449;29;20459;-49
2020/12/27 00:34:08;;;;;;;0.20;0.10;;;;;;;2.63;95.09;99978.25;4955347;28;20472;-50
2020/12/27 00:36:34;;;;;;;0.20;0.10;;;;;;;2.62;95.08;99971.25;4954743;28;20491;-49
2020/12/27 00:39:05;;;;;;;0.20;0.10;;;;;;;2.63;95.68;99961.66;4953861;29;20940;-50
2020/12/27 00:41:32;;;;;;;0.20;0.10;;;;;;;2.62;95.80;99966.03;4955492;29;20451;-50
2020/12/27 00:43:59;;;;;;;0.20;0.10;;;;;;;2.59;95.73;99955.50;4966025;28;20998;-51
2020/12/27 00:46:25;;;;;;;0.20;0.10;;;;;;;2.71;96.08;99948.50;4958702;28;20459;-50
2020/12/27 00:48:51;;;;;;;0.20;0.13;;;;;;;2.57;95.38;99925.78;4955576;28;20451;-50
2020/12/27 00:51:22;;;;;;;0.20;0.10;;;;;;;2.54;96.69;99910.06;4972504;28;20936;-49
2020/12/27 00:53:49;;;;;;;0.20;0.10;;;;;;;2.58;96.93;99903.91;4962753;28;20487;-49
2020/12/27 00:56:15;;;;;;;0.20;0.10;;;;;;;2.55;96.52;99905.69;4954608;28;20491;-51
2020/12/27 00:58:42;;;;;;;0.20;0.10;;;;;;;2.46;97.13;99884.72;4954968;29;20506;-51
2020/12/27 01:01:13;;;;;;;0.20;0.10;;;;;;;2.43;96.89;99875.09;4954853;28;20688;-51
2020/12/27 01:03:40;;;;;;;0.20;0.10;;;;;;;2.58;96.58;99874.19;4954674;28;21039;-51
2020/12/27 01:06:06;;;;;;;0.20;0.10;;;;;;;2.41;97.51;99869.00;4955109;28;20443;-51
2020/12/27 01:08:32;;;;;;;0.20;0.10;;;;;;;2.62;96.62;99868.06;4955013;28;20451;-51
2020/12/27 01:11:03;;;;;;;0.20;0.10;;;;;;;2.54;96.56;99860.22;4954674;29;20467;-51
2020/12/27 01:13:29;;;;;;;0.20;0.10;;;;;;;2.46;96.76;99854.09;4954795;28;20471;-51
2020/12/27 01:15:55;;;;;;;0.20;0.10;;;;;;;2.56;97.67;99855.84;4954531;29;20522;-51
2020/12/27 01:18:21;;;;;;;0.20;0.10;;;;;;;2.49;96.89;99848.00;4954413;29;20462;-51
2020/12/27 01:20:48;;;;;;;0.20;0.10;;;;;;;2.40;96.94;99829.66;4954736;28;20452;-51
2020/12/27 01:23:15;;;;;;;0.20;0.10;;;;;;;2.49;96.94;99820.03;4954356;28;20455;-51
2020/12/27 01:25:46;;;;;;;0.20;0.10;;;;;;;2.47;97.05;99803.44;4954318;29;20459;-51
2020/12/27 01:28:12;;;;;;;0.20;0.10;;;;;;;2.50;96.34;99800.78;4954616;28;20456;-51
2020/12/27 01:30:39;;;;;;;0.20;0.10;;;;;;;2.64;97.34;99796.34;4953099;29;20510;-51
2020/12/27 01:33:05;;;;;;;0.20;0.20;;;;;;;2.46;96.72;99791.16;4954281;28;20945;-51
2020/12/27 01:35:31;;;;;;;0.30;0.10;;;;;;;2.44;97.57;99784.19;4954535;28;20574;-51
2020/12/27 01:37:58;;;;;;;0.20;0.10;;;;;;;2.70;97.04;99778.81;4954610;28;20463;-51
2020/12/27 01:40:24;;;;;;;0.20;0.10;;;;;;;2.65;96.20;99769.22;4954679;29;20522;-51
2020/12/27 01:42:59;;;;;;;0.20;0.10;;;;;;;2.79;96.18;99757.78;4954339;28;20447;-51
2020/12/27 01:45:26;;;;;;;0.20;0.10;;;;;;;2.66;96.12;99747.38;4954492;28;20459;-50
2020/12/27 01:47:52;;;;;;;0.20;0.10;;;;;;;2.78;96.70;99740.31;4956349;28;20819;-50
2020/12/27 01:50:20;;;;;;;0.20;0.10;;;;;;;2.71;96.24;99739.44;4953757;29;20510;-51
2020/12/27 01:52:46;;;;;;;0.20;0.10;;;;;;;2.92;95.82;99735.84;4958366;28;20482;-51
2020/12/27 01:55:14;;;;;;;0.20;0.10;;;;;;;2.97;94.26;99726.16;4957824;28;20867;-51
2020/12/27 01:57:40;;;;;;;0.20;0.10;;;;;;;2.82;94.75;99718.41;4958094;28;20968;-51
2020/12/27 02:00:06;;;;;;;0.20;0.10;;;;;;;2.77;95.23;99722.81;4958425;28;20462;-51
2020/12/27 02:02:32;;;;;;;0.20;0.10;;;;;;;2.86;95.58;99713.09;4958090;28;20478;-50
2020/12/27 02:04:58;;;;;;;0.20;0.20;;;;;;;2.82;95.76;99716.66;4958250;28;20475;-51
2020/12/27 02:07:28;;;;;;;0.20;0.10;;;;;;;2.83;94.74;99715.75;4958106;28;20446;-51
2020/12/27 02:09:59;;;;;;;0.20;0.10;;;;;;;2.91;95.26;99711.34;4957900;28;20460;-50
2020/12/27 02:12:25;;;;;;;0.20;0.10;;;;;;;2.98;94.36;99697.28;4957597;28;20455;-51
2020/12/27 02:14:53;;;;;;;0.20;0.10;;;;;;;2.78;95.44;99699.19;4957942;28;20479;-50
2020/12/27 02:17:20;;;;;;;0.20;0.10;;;;;;;2.71;95.08;99696.59;4957617;28;20525;-51
2020/12/27 02:19:46;;;;;;;0.20;0.10;;;;;;;2.72;94.96;99698.34;4957885;28;20447;-50
2020/12/27 02:22:12;;;;;;;0.20;0.10;;;;;;;2.83;95.44;99688.66;4957628;28;20451;-51
2020/12/27 02:24:39;;;;;;;0.20;0.10;;;;;;;2.70;95.56;99684.38;4957658;28;20475;-51
2020/12/27 02:27:05;;;;;;;0.20;0.10;;;;;;;2.73;95.30;99666.84;4957600;29;20506;-51
2020/12/27 02:29:34;;;;;;;0.20;0.10;;;;;;;2.80;95.69;99671.19;4957620;28;20451;-51
2020/12/27 02:32:01;;;;;;;0.20;0.10;;;;;;;2.91;95.32;99663.22;4957516;28;20458;-51
2020/12/27 02:34:27;;;;;;;0.20;0.10;;;;;;;2.75;95.36;99659.00;4957723;28;20478;-51
2020/12/27 02:36:54;;;;;;;0.20;0.10;;;;;;;2.63;95.03;99655.56;4957371;28;21008;-51
2020/12/27 02:39:21;;;;;;;0.20;0.10;;;;;;;2.61;96.02;99648.59;4957445;28;20481;-51
2020/12/27 02:41:48;;;;;;;0.20;0.10;;;;;;;2.56;95.75;99638.09;4957363;29;20894;-50
2020/12/27 02:44:15;;;;;;;0.20;0.10;;;;;;;2.59;94.92;99629.34;4957616;28;20563;-51
2020/12/27 02:46:41;;;;;;;0.20;0.10;;;;;;;2.66;95.50;99621.44;4957396;28;20447;-50
2020/12/27 02:49:08;;;;;;;0.20;0.10;;;;;;;2.55;95.67;99618.00;4957116;28;20454;-52
2020/12/27 02:51:34;;;;;;;0.20;0.10;;;;;;;2.62;95.52;99596.09;4957967;28;20451;-52
2020/12/27 02:54:01;;;;;;;0.20;0.10;;;;;;;2.52;95.80;99594.44;4957130;28;20537;-52
2020/12/27 02:56:29;;;;;;;0.20;0.10;;;;;;;2.71;94.89;99583.78;4956849;29;20491;-52
2020/12/27 02:58:57;;;;;;;0.20;0.10;;;;;;;2.64;95.27;99578.59;4956356;28;20513;-51
2020/12/27 03:01:24;;;;;;;0.20;0.10;;;;;;;2.62;95.34;99566.38;4957020;28;20962;-51
2020/12/27 03:03:50;;;;;;;0.20;0.10;;;;;;;2.66;94.58;99555.84;4956578;28;20568;-51
2020/12/27 03:06:27;;;;;;;0.20;0.10;;;;;;;2.66;95.29;99544.47;4955764;29;20447;-51
2020/12/27 03:08:56;;;;;;;0.20;0.10;;;;;;;2.76;94.81;99538.28;4956949;28;20451;-51
2020/12/27 03:11:26;;;;;;;0.20;0.10;;;;;;;2.63;93.46;99542.75;4956654;29;20978;-51
2020/12/27 03:13:53;;;;;;;0.20;0.13;;;;;;;2.59;94.30;99542.78;4956373;28;20992;-51
2020/12/27 03:16:20;;;;;;;0.20;0.10;;;;;;;2.66;93.18;99532.22;4956592;28;20498;-51
2020/12/27 03:18:46;;;;;;;0.20;0.10;;;;;;;2.77;93.28;99524.25;4956651;28;20459;-51
2020/12/27 03:21:14;;;;;;;0.20;0.10;;;;;;;2.57;93.54;99515.69;4956461;29;20983;-50
2020/12/27 03:23:40;;;;;;;0.20;0.10;;;;;;;2.47;94.33;99509.69;4956363;28;20976;-51
2020/12/27 03:26:06;;;;;;;0.20;0.10;;;;;;;2.54;93.61;99505.25;4956910;28;20462;-50
2020/12/27 03:28:32;;;;;;;0.20;0.10;;;;;;;2.74;94.15;99502.41;4956352;28;20490;-51
2020/12/27 03:30:59;;;;;;;0.20;0.10;;;;;;;2.59;93.53;99490.31;4956834;28;20488;-51
2020/12/27 03:33:25;;;;;;;0.20;0.10;;;;;;;2.71;93.98;99486.72;4956324;28;20482;-50
2020/12/27 03:35:51;;;;;;;0.20;0.20;;;;;;;2.75;92.66;99476.19;4956035;29;20495;-50
2020/12/27 03:38:18;;;;;;;0.20;0.10;;;;;;;2.70;92.86;99459.59;4956365;28;20518;-51
2020/12/27 03:40:44;;;;;;;0.20;0.20;;;;;;;2.83;93.54;99457.72;4956305;28;20460;-50
2020/12/27 03:43:10;;;;;;;0.20;0.10;;;;;;;2.64;91.56;99441.31;4955211;28;20831;-51
2020/12/27 03:45:38;;;;;;;0.20;0.10;;;;;;;2.71;92.44;99436.84;4956245;29;20451;-50
2020/12/27 03:48:04;;;;;;;0.20;0.10;;;;;;;2.57;92.34;99434.38;4956151;28;20456;-51
2020/12/27 03:50:30;;;;;;;0.20;0.10;;;;;;;2.58;91.61;99423.00;4955914;29;20459;-51
2020/12/27 03:52:56;;;;;;;0.20;0.10;;;;;;;2.62;91.78;99415.09;4956010;28;20463;-51
2020/12/27 03:55:23;;;;;;;0.20;0.10;;;;;;;2.67;91.72;99410.66;4955758;28;20493;-51
2020/12/27 03:57:49;;;;;;;0.20;0.20;;;;;;;2.73;91.45;99401.84;4955987;28;20459;-51
2020/12/27 04:00:15;;;;;;;0.20;0.20;;;;;;;2.90;91.14;99402.53;4955788;29;20504;-51
2020/12/27 04:02:41;;;;;;;0.20;0.20;;;;;;;2.75;91.17;99383.50;4955653;28;20459;-51
2020/12/27 04:05:07;;;;;;;0.20;0.10;;;;;;;2.76;90.59;99375.59;4955914;28;20480;-51
2020/12/27 04:07:33;;;;;;;0.20;0.10;;;;;;;2.86;91.02;99373.69;4955932;28;20466;-51
2020/12/27 04:10:13;;;;;;;0.20;0.10;;;;;;;2.93;90.76;99357.00;4954628;28;20444;-51
2020/12/27 04:12:40;;;;;;;0.20;0.10;;;;;;;3.03;90.32;99357.75;4955371;28;20514;-51
2020/12/27 04:15:06;;;;;;;0.20;0.10;;;;;;;2.89;91.07;99360.56;4955621;28;20874;-52
2020/12/27 04:17:32;;;;;;;0.20;0.10;;;;;;;2.97;90.12;99351.69;4955211;29;20500;-51
2020/12/27 04:19:58;;;;;;;0.20;0.10;;;;;;;2.97;90.38;99350.81;4955656;28;20827;-52
2020/12/27 04:22:24;;;;;;;0.20;0.10;;;;;;;2.89;89.99;99339.56;4955505;29;20517;-51
2020/12/27 04:24:50;;;;;;;0.20;0.10;;;;;;;2.93;90.14;99315.88;4955155;28;20472;-51
2020/12/27 04:27:16;;;;;;;0.20;0.10;;;;;;;3.24;89.88;99310.19;4955446;28;20459;-51
2020/12/27 04:29:43;;;;;;;0.20;0.13;;;;;;;3.28;89.82;99304.84;4955352;28;20455;-52
2020/12/27 04:32:09;;;;;;;0.20;0.10;;;;;;;3.11;90.10;99296.38;4955228;28;20462;-51
2020/12/27 04:34:35;;;;;;;0.20;0.10;;;;;;;3.27;89.21;99290.00;4955180;28;20533;-51
2020/12/27 04:37:11;;;;;;;0.20;0.10;;;;;;;3.22;89.81;99280.47;4955259;28;20491;-51
2020/12/27 04:39:38;;;;;;;0.20;0.10;;;;;;;3.09;90.25;99271.91;4955154;28;20542;-51
2020/12/27 04:42:04;;;;;;;0.20;0.10;;;;;;;3.16;90.42;99257.81;4955048;29;20455;-51
2020/12/27 04:44:32;;;;;;;0.20;0.10;;;;;;;3.04;90.68;99254.50;4954965;28;20882;-51
2020/12/27 04:47:00;;;;;;;0.20;0.10;;;;;;;3.19;91.33;99235.88;4955053;28;20454;-51
2020/12/27 04:49:26;;;;;;;0.20;0.10;;;;;;;3.32;89.72;99229.53;4955075;28;20542;-52
2020/12/27 04:51:53;;;;;;;0.20;0.10;;;;;;;3.46;90.19;99224.94;4955162;28;20459;-51
2020/12/27 04:54:25;;;;;;;0.20;0.17;;;;;;;3.21;90.73;99220.97;4954711;28;20834;-51
2020/12/27 04:56:52;;;;;;;0.20;0.10;;;;;;;3.30;89.83;99204.22;4954919;29;20487;-52
2020/12/27 04:59:18;;;;;;;0.20;0.10;;;;;;;3.35;90.92;99205.84;4955723;28;20456;-52
2020/12/27 05:01:44;;;;;;;0.20;0.10;;;;;;;3.32;89.69;99197.16;4956014;29;20451;-51
2020/12/27 05:04:11;;;;;;;0.30;0.20;;;;;;;3.20;90.20;99188.59;4955413;28;20475;-51
2020/12/27 05:06:37;;;;;;;0.20;0.10;;;;;;;3.30;90.12;99176.19;4955038;28;20451;-51
2020/12/27 05:09:03;;;;;;;0.20;0.20;;;;;;;3.41;89.83;99171.59;4955084;28;20522;-49
2020/12/27 05:11:29;;;;;;;0.20;0.10;;;;;;;3.43;90.67;99163.72;4955038;28;20455;-51
2020/12/27 05:13:55;;;;;;;0.20;0.10;;;;;;;3.37;90.08;99163.81;4954548;28;20989;-51
2020/12/27 05:16:22;;;;;;;0.20;0.20;;;;;;;3.46;89.94;99159.25;4954633;29;20863;-50
2020/12/27 05:18:52;;;;;;;0.20;0.10;;;;;;;3.56;89.84;99157.31;4954642;28;20829;-51
2020/12/27 05:21:37;;;;;;;0.20;0.10;;;;;;;3.36;91.10;99141.06;4954277;28;20448;-50
2020/12/27 05:24:04;;;;;;;0.20;0.10;;;;;;;3.39;90.04;99143.63;4954715;28;20561;-51
2020/12/27 05:26:31;;;;;;;0.20;0.10;;;;;;;3.28;90.16;99139.44;4961365;28;20452;-51
2020/12/27 05:28:58;;;;;;;0.20;0.10;;;;;;;3.37;90.73;99140.16;4954703;28;20455;-51
2020/12/27 05:31:35;;;;;;;0.20;0.10;;;;;;;3.49;90.67;99138.19;4954757;28;20443;-51
2020/12/27 05:34:07;;;;;;;0.20;0.20;;;;;;;3.43;90.24;99124.31;4954267;28;20983;-51
2020/12/27 05:36:34;;;;;;;0.20;0.10;;;;;;;3.52;91.10;99129.38;4954158;28;20870;-51
2020/12/27 05:39:00;;;;;;;0.20;0.10;;;;;;;3.41;90.96;99124.31;4954612;28;20467;-51
2020/12/27 05:41:29;;;;;;;0.20;0.10;;;;;;;3.42;90.72;99119.94;4953945;28;20945;-51
2020/12/27 05:44:04;;;;;;;0.20;0.10;;;;;;;3.40;90.56;99117.34;4954478;28;20939;-51
2020/12/27 05:46:31;;;;;;;0.20;0.10;;;;;;;3.46;90.11;99111.97;4954313;29;20458;-51
2020/12/27 05:48:59;;;;;;;0.20;0.10;;;;;;;3.51;91.00;99101.38;4954217;28;20511;-51
2020/12/27 05:51:26;;;;;;;0.20;0.10;;;;;;;3.59;89.81;99099.47;4954372;28;20463;-51
2020/12/27 05:53:53;;;;;;;0.20;0.10;;;;;;;3.53;90.65;99094.31;4953827;28;20909;-51
2020/12/27 05:56:28;;;;;;;0.20;0.10;;;;;;;3.60;90.93;99077.56;4954070;28;20498;-51
2020/12/27 05:58:54;;;;;;;0.20;0.10;;;;;;;3.45;90.96;99073.47;4954517;28;20455;-52
2020/12/27 06:01:24;;;;;;;0.20;0.10;;;;;;;3.39;90.78;99062.22;4942044;29;20522;-51
2020/12/27 06:04:02;;;;;;;0.20;0.10;;;;;;;3.42;90.82;99056.91;4953749;28;20479;-51
2020/12/27 06:06:50;;;;;;;0.20;0.10;;;;;;;3.40;91.76;99056.94;4954559;28;20439;-51
2020/12/27 06:10:03;;;;;;;0.20;0.10;;;;;;;3.54;90.95;99044.38;4954174;28;20458;-51
2020/12/27 06:12:58;;;;;;;0.20;0.10;;;;;;;3.49;90.82;99038.38;4942166;28;20510;-50
2020/12/27 06:15:29;;;;;;;0.20;0.10;;;;;;;3.43;91.58;99035.88;4948359;28;20448;-50
2020/12/27 06:18:09;;;;;;;0.30;0.10;;;;;;;3.53;91.59;99029.53;4954296;28;20490;-50
2020/12/27 06:20:38;;;;;;;0.20;0.10;;;;;;;3.38;91.94;99021.09;4954634;28;20501;-50
2020/12/27 06:23:05;;;;;;;0.20;0.10;;;;;;;3.58;90.85;99021.56;4954375;28;20502;-50
2020/12/27 06:25:32;;;;;;;0.20;0.10;;;;;;;3.51;92.25;99020.81;4954268;28;20459;-50
2020/12/27 06:27:59;;;;;;;0.20;0.10;;;;;;;3.56;91.87;99013.72;4953895;28;20940;-50
2020/12/27 06:30:40;;;;;;;0.20;0.10;;;;;;;3.63;92.26;99001.31;4942967;29;20451;-49
2020/12/27 06:33:14;;;;;;;0.20;0.10;;;;;;;3.54;91.59;98999.72;4954143;28;20458;-49
2020/12/27 06:35:44;;;;;;;0.20;0.10;;;;;;;3.56;91.76;98990.06;4957487;28;20451;-49
2020/12/27 06:38:22;;;;;;;0.20;0.10;;;;;;;3.39;92.00;98979.03;4958019;28;20483;-49
2020/12/27 06:41:03;;;;;;;0.20;0.10;;;;;;;3.41;92.34;98985.13;4957427;28;20457;-49
2020/12/27 06:43:40;;;;;;;0.20;0.10;;;;;;;3.46;91.89;98985.03;4945122;28;20482;-49
2020/12/27 06:46:26;;;;;;;0.20;0.10;;;;;;;3.66;91.67;98960.97;4957534;28;20439;-49
2020/12/27 06:49:09;;;;;;;0.20;0.10;;;;;;;3.47;92.83;98968.38;4957590;28;20486;-49
2020/12/27 06:51:43;;;;;;;0.20;0.10;;;;;;;3.52;92.21;98953.38;4957081;29;20454;-49
2020/12/27 06:54:10;;;;;;;0.20;0.10;;;;;;;3.71;91.94;98954.72;4957220;28;20490;-49
2020/12/27 06:56:44;;;;;;;0.20;0.10;;;;;;;3.68;92.06;98944.25;5003639;23;20503;-50
2020/12/27 06:59:11;;;;;;;0.20;0.10;;;;;;;3.59;92.26;98931.34;5017900;28;20447;-49
2020/12/27 07:01:37;;;;;;;0.20;0.10;;;;;;;3.59;92.85;98926.09;5009244;28;20453;-49
2020/12/27 07:04:15;;;;;;;0.20;0.10;;;;;;;3.51;92.42;98918.38;5005913;28;20477;-52
2020/12/27 07:06:46;;;;;;;0.20;0.10;;;;;;;3.82;92.03;98920.28;5008649;28;20472;-50
2020/12/27 07:09:22;;;;;;;0.30;0.20;;;;;;;3.74;92.30;98906.47;5012647;28;20445;-51
2020/12/27 07:12:01;;;;;;;0.20;0.10;;;;;;;3.49;93.06;98916.69;5012241;28;20448;-49
2020/12/27 07:14:27;;;;;;;0.20;0.10;;;;;;;3.60;92.65;98903.31;5008212;28;20941;-50
2020/12/27 07:16:57;;;;;;;0.20;0.10;;;;;;;3.61;92.48;98911.16;5029986;28;20491;-48
2020/12/27 07:19:28;;;;;;;0.50;0.20;;;;;;;3.64;92.73;98905.81;5023372;28;20456;-50
2020/12/27 07:22:02;;;;;;;0.20;0.10;;;;;;;3.63;93.51;98890.97;5016140;28;20455;-50
2020/12/27 07:24:34;;;;;;;0.20;0.10;;;;;;;3.55;92.74;98891.13;5009877;28;20452;-57
2020/12/27 07:27:06;;;;;;;0.20;0.10;;;;;;;3.61;93.32;98884.88;5010457;28;20472;-53
2020/12/27 07:29:33;;;;;;;0.20;0.10;;;;;;;3.59;93.47;98876.19;5007132;28;20511;-51
2020/12/27 07:32:00;;;;;;;0.20;0.10;;;;;;;3.50;93.14;98860.63;5013194;28;20453;-51
2020/12/27 07:34:29;;;;;;;0.20;0.10;;;;;;;3.52;94.11;98848.31;5011872;28;20449;-49
2020/12/27 07:37:00;;;;;;;0.20;0.20;;;;;;;3.70;93.14;98847.91;5006122;28;20495;-52
2020/12/27 07:39:47;;;;;;;0.20;0.10;;;;;;;3.60;93.94;98840.25;5006525;28;20829;-50
2020/12/27 07:42:21;;;;;;;0.20;0.10;;;;;;;3.68;93.80;98831.28;5008845;28;20444;-49
2020/12/27 07:44:47;;;;;;;0.20;0.10;;;;;;;3.65;93.54;98814.72;5005610;28;20449;-50
2020/12/27 07:47:13;;;;;;;0.20;0.10;;;;;;;3.68;93.82;98810.25;5024582;28;20514;-50
2020/12/27 07:49:40;;;;;;;0.20;0.10;;;;;;;3.69;93.69;98801.47;5005989;28;20453;-50
2020/12/27 07:52:07;;;;;;;0.20;0.10;;;;;;;3.59;94.48;98799.13;5009687;28;20454;-50
2020/12/27 07:54:33;;;;;;;0.20;0.10;;;;;;;3.66;94.71;98787.56;5012992;28;20449;-49
2020/12/27 07:57:00;;;;;;;0.20;0.10;;;;;;;3.70;94.13;98771.69;5009754;28;20495;-48
2020/12/27 07:59:26;;;;;;;0.20;0.10;;;;;;;3.64;95.13;98765.72;5004358;28;20452;-50
2020/12/27 08:01:52;;;;;;;0.20;0.10;;;;;;;3.68;95.31;98747.19;5008757;28;20449;-49
2020/12/27 08:04:19;;;;;;;0.20;0.13;;;;;;;3.65;95.79;98739.41;5011529;28;20480;-49
2020/12/27 08:06:45;;;;;;;0.20;0.10;;;;;;;3.61;95.76;98743.03;5009727;28;20469;-49
2020/12/27 08:09:13;;;;;;;0.20;0.20;;;;;;;3.79;95.61;98732.03;5006325;28;20449;-49
2020/12/27 08:11:41;;;;;;;0.20;0.20;;;;;;;3.73;95.67;98726.09;5008217;28;20813;-49
2020/12/27 08:14:09;;;;;;;0.20;0.10;;;;;;;3.76;95.81;98737.38;5012479;28;20939;-49
2020/12/27 08:16:37;;;;;;;0.20;0.20;;;;;;;3.69;95.64;98729.66;5020730;28;21027;-49
2020/12/27 08:19:13;;;;;;;0.20;0.10;;;;;;;3.71;96.40;98723.50;5015410;28;20833;-49
2020/12/27 08:21:41;;;;;;;0.20;0.10;;;;;;;3.84;95.57;98721.41;5029888;28;20444;-49
2020/12/27 08:24:17;;;;;;;0.20;0.10;;;;;;;3.86;95.03;98707.31;5009124;28;21001;-56
2020/12/27 08:26:47;;;;;;;0.20;0.10;;;;;;;3.90;95.52;98691.47;5008032;28;20469;-49
2020/12/27 08:29:21;;;;;;;0.20;0.10;;;;;;;3.90;95.61;98683.56;5009791;28;20452;-55
2020/12/27 08:31:48;;;;;;;0.20;0.10;;;;;;;3.79;95.29;98670.72;5012385;28;20487;-49
2020/12/27 08:34:16;;;;;;;0.20;0.20;;;;;;;3.97;95.51;98675.47;5009817;28;20452;-49
2020/12/27 08:36:54;;;;;;;0.20;0.10;;;;;;;3.78;96.01;98672.50;5004954;28;20501;-49
2020/12/27 08:39:26;;;;;;;0.20;0.10;;;;;;;3.99;95.23;98667.56;5006107;28;20441;-51
2020/12/27 08:42:10;;;;;;;0.20;0.10;;;;;;;3.95;96.02;98664.13;5011514;28;20449;-51
2020/12/27 08:44:45;;;;;;;0.20;0.10;;;;;;;4.05;95.60;98649.81;5011586;28;20457;-49
2020/12/27 08:47:19;;;;;;;0.20;0.10;;;;;;;4.00;96.06;98651.75;5018740;28;20464;-49
2020/12/27 08:49:58;;;;;;;0.20;0.10;;;;;;;4.08;95.76;98633.09;5005551;28;20444;-49
2020/12/27 08:52:25;;;;;;;0.20;0.10;;;;;;;4.12;95.60;98622.47;5004517;28;20449;-50
2020/12/27 08:55:12;;;;;;;0.20;0.20;;;;;;;4.19;95.32;98622.28;5010155;28;20442;-49
2020/12/27 08:57:42;;;;;;;0.20;0.10;;;;;;;4.23;95.83;98623.91;5010014;28;20501;-49
2020/12/27 09:00:13;;;;;;;0.20;0.10;;;;;;;4.34;95.39;98614.78;5007903;28;20455;-50
2020/12/27 09:02:40;;;;;;;0.20;0.10;;;;;;;4.52;94.83;98604.59;5004332;28;20850;-49
2020/12/27 09:05:08;;;;;;;0.20;0.10;;;;;;;4.33;95.27;98594.66;5004229;28;20531;-49
2020/12/27 09:07:39;;;;;;;0.20;0.20;;;;;;;4.36;94.54;98578.75;5010375;28;20523;-52
2020/12/27 09:10:21;;;;;;;0.30;0.10;;;;;;;4.30;95.27;98571.06;5011297;28;20480;-48
2020/12/27 09:13:01;;;;;;;0.20;0.10;;;;;;;4.29;95.42;98569.38;5006316;28;20453;-50
2020/12/27 09:15:31;;;;;;;0.20;0.10;;;;;;;4.40;95.41;98545.38;5006419;28;20456;-49
2020/12/27 09:18:12;;;;;;;0.20;0.10;;;;;;;3.63;95.10;98562.56;5027061;28;20500;-49
2020/12/27 09:20:43;;;;;;;0.73;0.73;;;;;;;3.27;96.86;98559.19;5012971;28;20444;-49
2020/12/27 09:23:14;;;;;;;0.20;0.10;;;;;;;3.03;97.27;98549.38;5022963;28;20449;-49
2020/12/27 09:25:42;;;;;;;0.20;0.10;;;;;;;3.25;97.03;98543.50;5003920;28;20527;-50
2020/12/27 09:28:13;;;;;;;0.20;0.20;;;;;;;3.06;97.51;98537.03;5009583;28;20468;-50
2020/12/27 09:30:42;;;;;;;0.20;0.10;;;;;;;3.32;97.34;98528.44;5004793;28;20448;-49
2020/12/27 09:33:09;;;;;;;0.20;0.10;;;;;;;3.21;97.96;98520.00;5003050;28;20503;-53
2020/12/27 09:35:35;;;;;;;0.20;0.10;;;;;;;3.07;98.75;98514.25;5008072;28;20473;-49
2020/12/27 09:38:02;;;;;;;0.20;0.10;;;;;;;3.12;98.33;98500.09;5009706;28;20496;-50
2020/12/27 09:40:35;;;;;;;0.20;0.10;;;;;;;3.19;97.76;98495.56;5005828;28;20862;-50
2020/12/27 09:43:04;;;;;;;0.20;0.10;;;;;;;2.87;98.53;98485.91;5002527;28;20456;-49
2020/12/27 09:45:32;;;;;;;0.20;0.10;;;;;;;2.73;98.46;98482.81;5009429;28;20449;-49
2020/12/27 09:48:00;;;;;;;0.20;0.10;;;;;;;2.82;98.48;98480.81;5014797;28;20466;-49
2020/12/27 09:50:40;;;;;;;0.20;0.10;;;;;;;3.02;98.36;98476.81;5007172;28;20540;-54
2020/12/27 09:53:06;;;;;;;0.20;0.10;;;;;;;2.95;99.17;98471.69;5002984;28;20883;-49
2020/12/27 09:55:34;;;;;;;0.20;0.10;;;;;;;3.12;98.94;98457.25;5003603;28;20461;-50
2020/12/27 09:58:00;;;;;;;0.20;0.10;;;;;;;3.16;98.04;98438.75;5010594;28;20494;-49
2020/12/27 10:00:26;;;;;;;0.20;0.10;;;;;;;3.33;97.70;98442.66;5010520;28;20452;-50
2020/12/27 10:02:52;;;;;;;0.20;0.10;;;;;;;3.65;96.76;98424.16;5011098;28;20461;-49
2020/12/27 10:05:18;;;;;;;0.20;0.10;;;;;;;3.41;96.40;98430.16;5010509;28;20444;-50
2020/12/27 10:07:45;;;;;;;0.20;0.10;;;;;;;3.50;95.50;98412.34;5005486;28;20526;-49
2020/12/27 10:10:12;;;;;;;0.20;0.10;;;;;;;3.61;96.08;98417.28;5008036;28;20523;-50
2020/12/27 10:12:39;;;;;;;0.20;0.10;;;;;;;3.70;95.83;98397.72;5014787;28;20954;-54
2020/12/27 10:15:08;;;;;;;0.20;0.10;;;;;;;3.71;95.85;98402.09;5014294;28;20472;-49
2020/12/27 10:17:34;;;;;;;0.20;0.10;;;;;;;3.79;94.92;98394.81;5029145;28;20492;-49
2020/12/27 10:20:01;;;;;;;0.20;0.10;;;;;;;3.83;95.02;98384.16;5010699;28;20453;-49
2020/12/27 10:22:28;;;;;;;0.20;0.10;;;;;;;3.81;95.36;98382.50;5033152;28;20464;-49
2020/12/27 10:24:54;;;;;;;0.20;0.10;;;;;;;3.80;95.22;98381.63;5006411;28;20449;-49
2020/12/27 10:27:20;;;;;;;0.20;0.10;;;;;;;3.77;95.55;98365.97;5013225;28;20464;-49
2020/12/27 10:29:47;;;;;;;0.20;0.10;;;;;;;3.83;96.17;98360.50;5008129;28;20449;-49
2020/12/27 10:32:13;;;;;;;0.20;0.10;;;;;;;4.06;95.22;98348.38;5013416;28;20453;-50
2020/12/27 10:34:39;;;;;;;0.20;0.10;;;;;;;4.03;94.64;98345.88;5012948;28;20448;-49
2020/12/27 10:37:06;;;;;;;0.20;0.10;;;;;;;3.94;95.79;98336.50;5007950;28;20519;-49
2020/12/27 10:39:32;;;;;;;0.20;0.10;;;;;;;4.17;95.89;98319.97;5007456;28;20460;-49
2020/12/27 10:41:59;;;;;;;0.20;0.20;;;;;;;4.03;95.52;98317.81;5012006;28;20449;-49
2020/12/27 10:44:26;;;;;;;0.20;0.10;;;;;;;4.08;96.54;98297.47;5012969;28;20453;-49
2020/12/27 10:46:52;;;;;;;0.20;0.10;;;;;;;4.44;97.55;98297.09;5017933;28;21057;-49
2020/12/27 10:49:20;;;;;;;0.20;0.10;;;;;;;4.71;96.86;98282.06;5006331;28;20445;-49
2020/12/27 10:51:47;;;;;;;0.20;0.10;;;;;;;4.89;96.46;98264.72;5010097;28;20460;-53
2020/12/27 10:54:13;;;;;;;0.20;0.20;;;;;;;5.08;96.33;98259.63;5012899;28;20931;-48
2020/12/27 10:56:41;;;;;;;0.20;0.10;;;;;;;5.12;96.01;98243.63;5008275;28;20586;-50
2020/12/27 10:59:08;;;;;;;0.20;0.20;;;;;;;5.26;95.92;98249.19;5006010;28;20514;-49
2020/12/27 11:01:35;;;;;;;2.60;1.70;;;;;;;5.33;94.71;98232.22;5010363;28;20461;-50
2020/12/27 11:04:01;;;;;;;7.63;3.03;;;;;;;5.45;95.30;98233.50;5012549;28;20452;-49
2020/12/27 11:06:31;;;;;;;0.20;0.20;;;;;;;5.35;94.64;98217.22;5008506;28;20515;-49
2020/12/27 11:08:59;;;;;;;0.20;0.10;;;;;;;5.38;95.02;98208.34;5005501;28;20854;-48
2020/12/27 11:11:33;;;;;;;0.20;0.20;;;;;;;5.30;94.48;98181.44;5009637;28;20450;-57
2020/12/27 11:13:59;;;;;;;0.20;0.10;;;;;;;5.38;94.21;98175.88;5012394;28;20449;-49
2020/12/27 11:16:25;;;;;;;0.20;0.10;;;;;;;5.44;94.61;98176.44;5019939;28;20498;-48
2020/12/27 11:18:51;;;;;;;0.20;0.10;;;;;;;5.41;94.25;98173.09;5017897;28;20940;-48
2020/12/27 11:21:18;;;;;;;0.20;0.13;;;;;;;5.47;94.08;98164.91;5025124;28;20452;-49
2020/12/27 11:23:44;;;;;;;0.20;0.10;;;;;;;5.50;94.29;98157.78;5017054;28;20453;-49
2020/12/27 11:26:10;;;;;;;0.20;0.10;;;;;;;5.50;93.77;98144.59;5004372;28;20456;-48
2020/12/27 11:28:36;;;;;;;0.20;0.10;;;;;;;5.54;94.24;98142.69;5010034;28;20939;-49
2020/12/27 11:31:02;;;;;;;0.20;0.20;;;;;;;5.47;94.76;98121.00;5009702;28;20945;-56
2020/12/27 11:33:29;;;;;;;0.20;0.10;;;;;;;5.46;93.89;98126.31;5006404;28;20448;-49
2020/12/27 11:35:55;;;;;;;0.20;0.10;;;;;;;5.56;93.89;98109.22;5008206;28;20457;-50
2020/12/27 11:38:21;;;;;;;0.20;0.10;;;;;;;5.49;94.53;98099.88;5011173;28;21009;-52
2020/12/27 11:40:47;;;;;;;0.20;0.10;;;;;;;5.50;94.04;98097.16;5009241;28;20805;-49
2020/12/27 11:43:13;;;;;;;0.20;0.20;;;;;;;5.49;94.24;98086.69;5004042;28;20838;-53
2020/12/27 11:45:39;;;;;;;0.20;0.10;;;;;;;5.56;94.27;98073.16;5014089;28;20451;-56
2020/12/27 11:48:06;;;;;;;0.20;0.10;;;;;;;5.59;93.28;98059.00;5016795;28;20470;-53
2020/12/27 11:50:32;;;;;;;0.20;0.10;;;;;;;5.46;94.10;98047.28;5008063;28;20448;-49